createdAt,value
2022-12-31T00:02:05.297Z,100780.13
2022-12-31T00:04:35.756Z,100768.97
2022-12-31T00:07:06.057Z,100767.25
2022-12-31T00:09:36.334Z,100744.88
2022-12-31T00:12:07.144Z,100735.41
2022-12-31T00:14:37.311Z,100748.34
2022-12-31T00:17:07.699Z,100729.38
2022-12-31T00:19:37.899Z,100708.72
2022-12-31T00:22:08.107Z,100707.94
2022-12-31T00:24:38.337Z,100696.72
2022-12-31T00:27:08.534Z,100688.13
2022-12-31T00:29:38.681Z,100683.84
2022-12-31T00:32:08.861Z,100685.59
2022-12-31T00:34:39.022Z,100678.72
2022-12-31T00:37:09.213Z,100697.66
2022-12-31T00:39:39.353Z,100679.53
2022-12-31T00:42:09.574Z,100698.56
2022-12-31T00:44:39.814Z,100682.94
2022-12-31T00:47:10.020Z,100697.69
2022-12-31T00:49:40.288Z,100714.00
2022-12-31T00:52:13.929Z,100716.56
2022-12-31T00:54:44.417Z,100687.22
2022-12-31T00:57:14.630Z,100684.66
2022-12-31T00:59:44.799Z,100688.97
2022-12-31T01:02:15.170Z,100689.03
2022-12-31T01:04:45.583Z,100666.50
2022-12-31T01:07:15.800Z,100679.38
2022-12-31T01:09:46.028Z,100689.88
2022-12-31T01:12:16.249Z,100685.56
2022-12-31T01:14:46.510Z,100690.75
2022-12-31T01:17:17.406Z,100700.25
2022-12-31T01:19:47.624Z,100702.00
2022-12-31T01:22:17.855Z,100683.00
2022-12-31T01:28:29.001Z,100690.91
2022-12-31T01:30:59.930Z,100697.00
2022-12-31T01:33:30.175Z,100688.34
2022-12-31T01:36:05.394Z,100698.75
2022-12-31T01:38:36.427Z,100688.34
2022-12-31T01:41:07.783Z,100696.16
2022-12-31T01:43:51.593Z,100688.41
2022-12-31T01:46:47.841Z,100695.31
2022-12-31T01:49:35.533Z,100691.91
2022-12-31T01:52:18.280Z,100674.59
2022-12-31T01:54:55.504Z,100682.47
2022-12-31T01:57:26.855Z,100677.28
2022-12-31T01:59:58.442Z,100681.59
2022-12-31T02:02:28.830Z,100679.03
2022-12-31T02:05:03.072Z,100667.84
2022-12-31T02:07:33.290Z,100678.22
2022-12-31T02:10:03.599Z,100655.75
2022-12-31T02:12:33.769Z,100671.38
2022-12-31T02:15:04.283Z,100661.03
2022-12-31T02:17:39.210Z,100657.66
2022-12-31T02:20:24.591Z,100655.06
2022-12-31T02:23:16.407Z,100650.75
2022-12-31T02:26:05.004Z,100652.50
2022-12-31T02:29:12.356Z,100639.56
2022-12-31T02:31:46.386Z,100640.44
2022-12-31T02:34:27.612Z,100643.00
2022-12-31T02:37:00.047Z,100641.28
2022-12-31T02:39:30.989Z,100641.28
2022-12-31T02:42:02.054Z,100631.88
2022-12-31T02:44:37.492Z,100627.53
2022-12-31T02:47:18.656Z,100625.78
2022-12-31T02:50:06.662Z,100617.19
2022-12-31T02:52:51.358Z,100603.41
2022-12-31T02:55:33.773Z,100605.16
2022-12-31T02:58:12.749Z,100613.78
2022-12-31T03:01:10.699Z,100613.72
2022-12-31T03:03:41.763Z,100614.59
2022-12-31T03:06:13.435Z,100607.63
2022-12-31T03:09:10.000Z,100624.03
2022-12-31T03:11:58.922Z,100618.97
2022-12-31T03:14:29.046Z,100610.34
2022-12-31T03:16:59.296Z,100604.31
2022-12-31T03:19:47.851Z,100597.44
2022-12-31T03:22:30.030Z,100591.44
2022-12-31T03:25:22.147Z,100593.19
2022-12-31T03:27:52.881Z,100594.03
2022-12-31T03:30:24.457Z,100603.50
2022-12-31T03:32:56.691Z,100613.81
2022-12-31T03:35:28.865Z,100616.41
2022-12-31T03:37:59.519Z,100617.28
2022-12-31T03:40:31.728Z,100626.81
2022-12-31T03:43:01.893Z,100625.91
2022-12-31T03:45:32.108Z,100615.63
2022-12-31T03:48:05.310Z,100612.22
2022-12-31T03:50:36.216Z,100605.31
2022-12-31T03:53:06.380Z,100595.00
2022-12-31T03:55:36.852Z,100602.75
2022-12-31T03:58:07.065Z,100607.09
2022-12-31T04:00:37.268Z,100608.81
2022-12-31T04:03:07.537Z,100603.63
2022-12-31T04:05:37.774Z,100611.34
2022-12-31T04:08:07.997Z,100618.28
2022-12-31T04:10:38.136Z,100616.53
2022-12-31T04:13:08.255Z,100613.06
2022-12-31T04:15:38.315Z,100619.13
2022-12-31T04:18:08.491Z,100624.31
2022-12-31T04:20:38.706Z,100629.53
2022-12-31T04:23:08.823Z,100629.50
2022-12-31T04:25:38.886Z,100630.34
2022-12-31T04:28:09.035Z,100625.19
2022-12-31T04:30:40.123Z,100625.22
2022-12-31T04:33:10.198Z,100622.66
2022-12-31T04:35:40.358Z,100603.66
2022-12-31T04:38:10.574Z,100616.66
2022-12-31T04:41:00.606Z,100609.78
2022-12-31T04:43:30.733Z,100619.25
2022-12-31T04:46:00.985Z,100623.53
2022-12-31T04:48:31.233Z,100626.19
2022-12-31T04:51:01.912Z,100622.72
2022-12-31T04:53:32.078Z,100621.88
2022-12-31T04:56:02.856Z,100625.34
2022-12-31T04:58:33.808Z,100608.09
2022-12-31T05:01:04.950Z,100623.63
2022-12-31T05:03:36.282Z,100626.19
2022-12-31T05:06:15.644Z,100640.00
2022-12-31T05:08:46.196Z,100638.25
2022-12-31T05:11:17.871Z,100641.69
2022-12-31T05:13:47.954Z,100637.34
2022-12-31T05:16:18.227Z,100645.94
2022-12-31T05:18:48.392Z,100636.44
2022-12-31T05:21:21.714Z,100652.00
2022-12-31T05:23:51.892Z,100655.50
2022-12-31T05:26:22.047Z,100645.97
2022-12-31T05:28:52.175Z,100658.91
2022-12-31T05:31:22.905Z,100652.88
2022-12-31T05:33:53.674Z,100658.09
2022-12-31T05:36:23.836Z,100658.94
2022-12-31T05:38:53.995Z,100664.13
2022-12-31T05:41:24.178Z,100650.28
2022-12-31T05:43:54.356Z,100652.91
2022-12-31T05:46:24.553Z,100625.22
2022-12-31T05:48:54.666Z,100655.56
2022-12-31T05:51:24.804Z,100654.69
2022-12-31T05:53:54.880Z,100649.53
2022-12-31T05:56:25.014Z,100644.38
2022-12-31T05:58:55.175Z,100636.63
2022-12-31T06:01:25.503Z,100643.53
2022-12-31T06:03:55.721Z,100652.16
2022-12-31T06:06:25.939Z,100650.44
2022-12-31T06:08:56.109Z,100658.25
2022-12-31T06:11:26.288Z,100652.22
2022-12-31T06:13:56.544Z,100647.94
2022-12-31T06:16:27.444Z,100660.06
2022-12-31T06:18:57.661Z,100654.88
2022-12-31T06:21:27.797Z,100661.78
2022-12-31T06:23:59.092Z,100648.78
2022-12-31T06:26:29.330Z,100657.47
2022-12-31T06:28:59.396Z,100644.47
2022-12-31T06:31:29.637Z,100644.53
2022-12-31T06:33:59.773Z,100641.94
2022-12-31T06:36:30.174Z,100642.81
2022-12-31T06:39:01.540Z,100654.91
2022-12-31T06:41:31.959Z,100659.22
2022-12-31T06:44:02.140Z,100665.31
2022-12-31T06:46:32.456Z,100667.03
2022-12-31T06:49:02.753Z,100669.63
2022-12-31T06:51:33.034Z,100668.78
2022-12-31T06:54:03.234Z,100673.97
2022-12-31T06:56:34.949Z,100673.97
2022-12-31T06:59:05.639Z,100680.03
2022-12-31T07:01:57.960Z,100687.81
2022-12-31T07:04:36.794Z,100689.59
2022-12-31T07:07:51.214Z,100699.06
2022-12-31T07:10:29.252Z,100698.22
2022-12-31T07:13:32.576Z,100710.31
2022-12-31T07:16:02.766Z,100697.38
2022-12-31T07:18:35.927Z,100695.63
2022-12-31T07:21:14.791Z,100705.13
2022-12-31T07:23:45.301Z,100715.50
2022-12-31T07:27:00.047Z,100713.81
2022-12-31T07:30:05.167Z,100714.72
2022-12-31T07:32:51.254Z,100708.69
2022-12-31T07:35:57.037Z,100699.19
2022-12-31T07:38:35.977Z,100713.91
2022-12-31T07:41:22.071Z,100713.06
2022-12-31T07:44:05.735Z,100703.59
2022-12-31T07:46:59.201Z,100700.13
2022-12-31T07:49:31.288Z,100677.72
2022-12-31T07:52:01.834Z,100671.66
2022-12-31T07:54:32.029Z,100679.44
2022-12-31T07:57:02.305Z,100694.13
2022-12-31T07:59:45.667Z,100690.66
2022-12-31T08:02:34.177Z,100702.78
2022-12-31T08:05:34.247Z,100720.13
2022-12-31T08:08:14.614Z,100711.44
2022-12-31T08:11:06.550Z,100727.84
2022-12-31T08:13:37.477Z,100715.72
2022-12-31T08:16:11.578Z,100731.31
2022-12-31T08:18:42.221Z,100720.94
2022-12-31T08:21:32.711Z,100724.44
2022-12-31T08:24:07.897Z,100733.09
2022-12-31T08:26:52.810Z,100720.13
2022-12-31T08:29:40.178Z,100721.00
2022-12-31T08:32:23.937Z,100710.66
2022-12-31T08:35:24.804Z,100708.94
2022-12-31T08:38:25.389Z,100724.50
2022-12-31T08:41:04.667Z,100718.50
2022-12-31T08:43:55.952Z,100730.63
2022-12-31T08:46:40.824Z,100740.13
2022-12-31T08:49:11.604Z,100736.69
2022-12-31T08:51:42.410Z,100736.72
2022-12-31T08:54:13.516Z,100729.78
2022-12-31T08:56:52.129Z,100737.63
2022-12-31T08:59:38.438Z,100739.34
2022-12-31T09:02:22.952Z,100736.78
2022-12-31T09:04:55.980Z,100740.22
2022-12-31T09:07:39.880Z,100735.06
2022-12-31T09:10:28.669Z,100738.53
2022-12-31T09:13:34.059Z,100735.94
2022-12-31T09:16:20.805Z,100728.16
2022-12-31T09:18:51.121Z,100731.63
2022-12-31T09:21:21.541Z,100721.25
2022-12-31T09:23:51.925Z,100704.81
2022-12-31T09:26:48.521Z,100704.81
2022-12-31T09:29:30.840Z,100710.88
2022-12-31T09:32:27.858Z,100700.53
2022-12-31T09:35:16.605Z,100705.69
2022-12-31T09:37:51.665Z,100700.53
2022-12-31T09:40:55.485Z,100703.16
2022-12-31T09:43:46.841Z,100705.75
2022-12-31T09:46:41.960Z,100670.28
2022-12-31T09:49:47.727Z,100665.09
2022-12-31T09:52:32.847Z,100668.56
2022-12-31T09:55:24.301Z,100665.09
2022-12-31T09:58:12.424Z,100662.53
2022-12-31T10:01:30.303Z,100665.97
2022-12-31T10:04:28.941Z,100653.03
2022-12-31T10:07:05.113Z,100652.16
2022-12-31T10:09:47.511Z,100648.69
2022-12-31T10:12:38.826Z,100642.63
2022-12-31T10:15:35.931Z,100646.09
2022-12-31T10:18:29.411Z,100633.13
2022-12-31T10:21:20.825Z,100640.03
2022-12-31T10:24:09.402Z,100630.53
2022-12-31T10:27:05.986Z,100609.78
2022-12-31T10:29:47.987Z,100610.69
2022-12-31T10:32:48.322Z,100599.44
2022-12-31T10:35:27.742Z,100605.47
2022-12-31T10:38:42.786Z,100602.88
2022-12-31T10:41:31.165Z,100603.72
2022-12-31T10:44:19.210Z,100599.44
2022-12-31T10:47:10.891Z,100593.38
2022-12-31T10:49:41.026Z,100595.09
2022-12-31T10:52:48.693Z,100606.34
2022-12-31T10:55:24.387Z,100605.47
2022-12-31T10:58:16.332Z,100603.72
2022-12-31T11:01:05.094Z,100595.94
2022-12-31T11:04:12.780Z,100591.63
2022-12-31T11:07:24.478Z,100585.59
2022-12-31T11:10:09.808Z,100573.47
2022-12-31T11:13:01.449Z,100576.94
2022-12-31T11:15:34.732Z,100566.56
2022-12-31T11:18:31.353Z,100552.72
2022-12-31T11:21:28.200Z,100549.25
2022-12-31T11:24:10.118Z,100529.41
2022-12-31T11:27:11.699Z,100532.88
2022-12-31T11:30:07.160Z,100527.66
2022-12-31T11:32:46.599Z,100519.88
2022-12-31T11:35:30.325Z,100522.50
2022-12-31T11:38:09.480Z,100527.69
2022-12-31T11:41:33.534Z,100519.03
2022-12-31T11:44:25.125Z,100528.53
2022-12-31T11:47:04.196Z,100506.06
2022-12-31T11:49:41.541Z,100506.94
2022-12-31T11:52:21.839Z,100493.97
2022-12-31T11:54:58.124Z,100499.13
2022-12-31T11:57:34.976Z,100517.28
2022-12-31T12:00:18.500Z,100535.47
2022-12-31T12:02:58.927Z,100500.00
2022-12-31T12:05:29.902Z,100494.81
2022-12-31T12:08:00.138Z,100489.66
2022-12-31T12:10:37.612Z,100474.94
2022-12-31T12:13:21.963Z,100480.13
2022-12-31T12:15:56.679Z,100467.16
2022-12-31T12:18:49.818Z,100461.13
2022-12-31T12:21:27.487Z,100474.94
2022-12-31T12:24:04.755Z,100472.34
2022-12-31T12:26:40.049Z,100468.00
2022-12-31T12:29:14.730Z,100470.59
2022-12-31T12:31:56.831Z,100476.66
2022-12-31T12:34:29.019Z,100469.72
2022-12-31T12:37:00.652Z,100457.63
2022-12-31T12:39:33.232Z,100464.56
2022-12-31T12:42:07.641Z,100470.56
2022-12-31T12:44:38.213Z,100469.72
2022-12-31T12:47:17.633Z,100467.97
2022-12-31T12:49:49.987Z,100470.59
2022-12-31T12:52:41.741Z,100466.22
2022-12-31T12:55:30.187Z,100457.56
2022-12-31T12:58:06.280Z,100470.56
2022-12-31T13:00:57.381Z,100467.06
2022-12-31T13:03:36.436Z,100459.28
2022-12-31T13:06:23.694Z,100450.66
2022-12-31T13:09:19.211Z,100453.22
2022-12-31T13:12:02.427Z,100455.81
2022-12-31T13:15:19.435Z,100452.38
2022-12-31T13:18:31.639Z,100464.47
2022-12-31T13:21:27.719Z,100461.00
2022-12-31T13:24:11.887Z,100470.50
2022-12-31T13:27:02.511Z,100454.94
2022-12-31T13:29:35.238Z,100462.72
2022-12-31T13:32:09.001Z,100479.13
2022-12-31T13:34:44.405Z,100476.53
2022-12-31T13:37:32.071Z,100473.91
2022-12-31T13:40:18.025Z,100479.09
2022-12-31T13:43:03.449Z,100497.25
2022-12-31T13:45:39.578Z,100485.97
2022-12-31T13:48:37.687Z,100497.25
2022-12-31T13:51:19.115Z,100492.03
2022-12-31T13:53:55.470Z,100481.63
2022-12-31T13:56:29.771Z,100483.34
2022-12-31T13:59:39.762Z,100485.94
2022-12-31T14:02:37.213Z,100490.25
2022-12-31T14:05:19.562Z,100491.09
2022-12-31T14:07:56.118Z,100492.78
2022-12-31T14:10:51.951Z,100491.03
2022-12-31T14:13:51.175Z,100494.50
2022-12-31T14:17:02.852Z,100492.72
2022-12-31T14:19:42.106Z,100497.91
2022-12-31T14:22:34.574Z,100477.09
2022-12-31T14:25:17.373Z,100465.84
2022-12-31T14:27:48.973Z,100476.22
2022-12-31T14:30:26.165Z,100477.06
2022-12-31T14:33:09.819Z,100471.03
2022-12-31T14:36:09.977Z,100493.50
2022-12-31T14:38:55.395Z,100488.28
2022-12-31T14:41:55.249Z,100486.59
2022-12-31T14:44:42.571Z,100466.63
2022-12-31T14:47:33.203Z,100453.66
2022-12-31T14:50:15.395Z,100480.50
2022-12-31T14:52:55.187Z,100476.16
2022-12-31T14:55:30.998Z,100471.81
2022-12-31T15:00:58.463Z,100484.81
2022-12-31T15:03:31.498Z,100489.13
2022-12-31T15:06:24.239Z,100475.28
2022-12-31T15:09:15.419Z,100480.44
2022-12-31T15:12:11.358Z,100479.53
2022-12-31T15:14:53.725Z,100488.19
2022-12-31T15:17:39.401Z,100476.06
2022-12-31T15:20:33.879Z,100477.78
2022-12-31T15:23:14.670Z,100477.72
2022-12-31T15:25:49.784Z,100482.03
2022-12-31T15:28:40.157Z,100482.06
2022-12-31T15:31:18.187Z,100479.44
2022-12-31T15:34:24.126Z,100496.72
2022-12-31T15:36:57.634Z,100493.25
2022-12-31T15:39:44.744Z,100492.38
2022-12-31T15:42:38.740Z,100484.56
2022-12-31T15:45:24.791Z,100476.72
2022-12-31T15:47:59.417Z,100468.03
2022-12-31T15:50:30.314Z,100469.78
2022-12-31T15:53:03.797Z,100474.06
2022-12-31T15:55:41.777Z,100482.69
2022-12-31T15:58:19.398Z,100479.16
2022-12-31T16:01:03.807Z,100486.03
2022-12-31T16:03:34.191Z,100487.78
2022-12-31T16:06:15.011Z,100496.38
2022-12-31T16:08:47.969Z,100505.91
2022-12-31T16:11:18.801Z,100500.66
2022-12-31T16:13:52.784Z,100504.06
2022-12-31T16:16:27.102Z,100499.72
2022-12-31T16:18:57.994Z,100486.66
2022-12-31T16:21:38.242Z,100491.00
2022-12-31T16:24:28.500Z,100488.38
2022-12-31T16:27:06.935Z,100495.28
2022-12-31T16:29:42.266Z,100467.56
2022-12-31T16:32:15.716Z,100461.44
2022-12-31T16:34:46.208Z,100461.47
2022-12-31T16:37:20.634Z,100467.53
2022-12-31T16:39:56.594Z,100463.13
2022-12-31T16:42:28.592Z,100461.38
2022-12-31T16:45:18.543Z,100462.22
2022-12-31T16:47:49.445Z,100486.50
2022-12-31T16:50:23.166Z,100481.28
2022-12-31T16:53:08.081Z,100461.31
2022-12-31T16:55:39.102Z,100457.84
2022-12-31T16:58:19.995Z,100456.06
2022-12-31T17:00:51.380Z,100471.66
2022-12-31T17:03:28.153Z,100462.97
2022-12-31T17:06:12.671Z,100474.16
2022-12-31T17:09:00.888Z,100473.28
2022-12-31T17:11:42.303Z,100488.84
2022-12-31T17:14:15.554Z,100488.84
2022-12-31T17:17:07.073Z,100507.84
2022-12-31T17:19:50.662Z,100524.34
2022-12-31T17:22:36.956Z,100528.66
2022-12-31T17:25:36.802Z,100544.22
2022-12-31T17:28:08.386Z,100538.09
2022-12-31T17:30:40.536Z,100533.75
2022-12-31T17:33:22.686Z,100536.31
2022-12-31T17:35:57.989Z,100534.53
2022-12-31T17:38:32.192Z,100541.44
2022-12-31T17:41:16.576Z,100539.69
2022-12-31T17:43:53.764Z,100534.41
2022-12-31T17:46:25.793Z,100519.66
2022-12-31T17:49:03.138Z,100520.41
2022-12-31T17:51:33.265Z,100523.91
2022-12-31T17:54:12.454Z,100508.22
2022-12-31T17:56:43.836Z,100512.53
2022-12-31T17:59:29.885Z,100522.94
2022-12-31T18:02:02.661Z,100530.78
2022-12-31T18:04:33.084Z,100529.06
2022-12-31T18:07:03.243Z,100532.59
2022-12-31T18:09:33.353Z,100530.78
2022-12-31T18:12:06.263Z,100536.03
2022-12-31T18:14:36.378Z,100529.97
2022-12-31T18:17:14.667Z,100517.84
2022-12-31T18:22:35.593Z,100509.13
2022-12-31T18:25:07.491Z,100514.38
2022-12-31T18:27:38.315Z,100539.56
2022-12-31T18:30:11.056Z,100538.66
2022-12-31T18:32:41.880Z,100534.34
2022-12-31T18:35:48.578Z,100536.09
2022-12-31T18:38:13.653Z,100542.22
2022-12-31T18:40:54.320Z,100550.78
2022-12-31T18:43:25.333Z,100548.16
2022-12-31T18:45:55.530Z,100562.03
2022-12-31T18:48:25.680Z,100560.34
2022-12-31T18:50:56.363Z,100569.81
2022-12-31T18:53:26.619Z,100561.06
2022-12-31T18:55:58.026Z,100563.72
2022-12-31T18:58:28.188Z,100582.78
2022-12-31T19:00:58.613Z,100582.78
2022-12-31T19:03:29.141Z,100584.53
2022-12-31T19:06:00.688Z,100577.56
2022-12-31T19:08:32.000Z,100600.19
2022-12-31T19:11:02.211Z,100605.28
2022-12-31T19:13:32.369Z,100607.03
2022-12-31T19:16:02.595Z,100611.34
2022-12-31T19:18:32.840Z,100606.13
2022-12-31T19:21:03.355Z,100608.72
2022-12-31T19:23:33.458Z,100610.44
2022-12-31T19:26:03.647Z,100601.69
2022-12-31T19:28:33.787Z,100605.22
2022-12-31T19:31:03.892Z,100616.50
2022-12-31T19:33:34.028Z,100611.28
2022-12-31T19:36:04.577Z,100600.84
2022-12-31T19:38:34.758Z,100592.03
2022-12-31T19:41:05.069Z,100590.31
2022-12-31T19:43:35.223Z,100593.81
2022-12-31T19:46:05.603Z,100591.22
2022-12-31T19:48:36.291Z,100598.16
2022-12-31T19:51:13.139Z,100593.81
2022-12-31T19:53:43.446Z,100593.78
2022-12-31T19:56:19.629Z,100579.91
2022-12-31T19:58:49.767Z,100587.75
2022-12-31T20:01:22.332Z,100589.44
2022-12-31T20:03:52.679Z,100574.72
2022-12-31T20:06:22.858Z,100576.41
2022-12-31T20:08:53.015Z,100581.56
2022-12-31T20:11:24.863Z,100578.97
2022-12-31T20:13:55.108Z,100588.53
2022-12-31T20:16:31.856Z,100585.97
2022-12-31T20:19:02.172Z,100589.44
2022-12-31T20:21:32.377Z,100583.38
2022-12-31T20:24:02.692Z,100596.47
2022-12-31T20:26:32.866Z,100576.47
2022-12-31T20:29:03.075Z,100579.97
2022-12-31T20:31:33.371Z,100585.19
2022-12-31T20:34:03.661Z,100566.16
2022-12-31T20:36:33.845Z,100578.28
2022-12-31T20:39:05.017Z,100573.09
2022-12-31T20:41:35.299Z,100580.91
2022-12-31T20:44:06.055Z,100585.25
2022-12-31T20:46:36.513Z,100588.75
2022-12-31T20:49:07.211Z,100597.47
2022-12-31T20:51:37.337Z,100575.75
2022-12-31T20:54:10.297Z,100579.19
2022-12-31T20:56:41.714Z,100574.91
2022-12-31T20:59:12.030Z,100579.25
2022-12-31T21:02:19.308Z,100560.94
2022-12-31T21:04:32.801Z,100564.41
2022-12-31T21:07:03.279Z,100568.81
2022-12-31T21:09:33.995Z,100570.59
2022-12-31T21:12:22.863Z,100573.16
2022-12-31T21:14:53.005Z,100569.63
2022-12-31T21:17:23.215Z,100567.06
2022-12-31T21:19:53.453Z,100559.25
2022-12-31T21:22:24.386Z,100564.53
2022-12-31T21:24:54.564Z,100555.84
2022-12-31T21:27:24.724Z,100554.91
2022-12-31T21:30:17.534Z,100544.44
2022-12-31T21:32:45.314Z,100527.97
2022-12-31T21:35:42.394Z,100536.63
2022-12-31T21:38:07.680Z,100522.75
2022-12-31T21:40:37.938Z,100511.47
2022-12-31T21:43:08.162Z,100526.28
2022-12-31T21:45:38.490Z,100537.59
2022-12-31T21:48:21.590Z,100537.66
2022-12-31T21:50:54.474Z,100561.13
2022-12-31T21:53:32.207Z,100553.44
2022-12-31T21:56:11.792Z,100562.88
2022-12-31T21:58:44.994Z,100569.00
2022-12-31T22:01:39.716Z,100560.31
2022-12-31T22:04:28.269Z,100555.16
2022-12-31T22:07:00.243Z,100562.09
2022-12-31T22:09:33.849Z,100562.16
2022-12-31T22:12:04.643Z,100563.06
2022-12-31T22:14:38.034Z,100554.47
2022-12-31T22:17:08.679Z,100571.78
2022-12-31T22:20:01.129Z,100570.03
2022-12-31T22:22:29.559Z,100570.03
2022-12-31T22:25:00.122Z,100589.13
2022-12-31T22:27:31.138Z,100556.22
2022-12-31T22:30:01.251Z,100583.06
2022-12-31T22:32:32.476Z,100577.00
2022-12-31T22:35:03.129Z,100577.00
2022-12-31T22:37:56.449Z,100577.91
2022-12-31T22:40:26.568Z,100571.00
2022-12-31T22:42:56.785Z,100571.81
2022-12-31T22:45:27.041Z,100571.84
2022-12-31T22:47:57.230Z,100578.78
2022-12-31T22:50:27.497Z,100586.59
2022-12-31T22:52:57.651Z,100574.47
2022-12-31T22:55:27.763Z,100596.09
2022-12-31T22:57:57.995Z,100587.44
2022-12-31T23:00:39.724Z,100590.88
2022-12-31T23:03:09.915Z,100585.69
2022-12-31T23:05:40.211Z,100582.22
2022-12-31T23:08:20.546Z,100560.47
2022-12-31T23:11:00.048Z,100574.34
2022-12-31T23:13:55.068Z,100565.63
2022-12-31T23:16:46.084Z,100564.75
2022-12-31T23:19:35.135Z,100558.66
2022-12-31T23:22:23.746Z,100547.38
2022-12-31T23:24:54.512Z,100558.66
2022-12-31T23:27:25.199Z,100569.06
2022-12-31T23:29:57.188Z,100556.91
2022-12-31T23:32:27.762Z,100552.53
2022-12-31T23:34:58.443Z,100552.53
2022-12-31T23:37:28.877Z,100538.66
2022-12-31T23:39:58.995Z,100545.63
2022-12-31T23:42:29.682Z,100543.88
2022-12-31T23:44:59.839Z,100549.97
2022-12-31T23:47:30.004Z,100545.66
2022-12-31T23:50:00.139Z,100539.56
2022-12-31T23:52:30.317Z,100547.38
2022-12-31T23:55:00.537Z,100548.28
2022-12-31T23:57:30.840Z,100538.69
